Time;durP1;ratioP1;P1;durP2;ratioP2;P2;SDS_P1;SDS_P2;PMS_P1;PMS_P2;Temp;Humidity;BMP_temperature;BMP_pressure;BME280_temperature;BME280_humidity;BME280_pressure;Samples;Min_cycle;Max_cycle;Signal;HPM_P1;HPM_P2
2023/12/23 00:02:06;;;;;;;10.77;3.78;;;5.90;99.90;;;;;;5012741;28;20481;-85
2023/12/23 00:04:37;;;;;;;6.68;3.10;;;5.90;99.90;;;;;;5012386;28;20057;-85
2023/12/23 00:07:03;;;;;;;9.82;3.97;;;5.90;99.90;;;;;;5010342;28;20033;-85
2023/12/23 00:09:29;;;;;;;6.30;3.10;;;5.90;99.90;;;;;;5028322;28;20053;-86
2023/12/23 00:11:54;;;;;;;;;;;5.90;99.90;;;;;;5028678;28;19963;-85
2023/12/23 00:14:20;;;;;;;;;;;5.90;99.90;;;;;;5012351;28;19909;-84
2023/12/23 00:16:46;;;;;;;;;;;5.90;99.90;;;;;;5028571;28;19910;-85
2023/12/23 00:19:11;;;;;;;;;;;5.90;99.90;;;;;;5013357;28;19936;-86
2023/12/23 00:21:37;;;;;;;;;;;5.90;99.90;;;;;;4995578;28;19914;-85
2023/12/23 00:24:02;;;;;;;;;;;5.90;99.90;;;;;;5028760;28;19913;-85
2023/12/23 00:26:28;;;;;;;;;;;5.90;99.90;;;;;;5028780;28;19961;-86
2023/12/23 00:28:54;;;;;;;;;;;6.00;99.90;;;;;;4995655;28;19936;-85
2023/12/23 00:31:20;;;;;;;;;;;5.90;99.90;;;;;;4995768;28;19905;-85
2023/12/23 00:33:47;;;;;;;;;;;5.90;99.90;;;;;;4995784;28;20245;-86
2023/12/23 00:36:13;;;;;;;;;;;5.90;99.90;;;;;;4995690;28;19909;-85
2023/12/23 00:38:39;;;;;;;;;;;6.00;99.90;;;;;;5012483;28;19909;-85
2023/12/23 00:41:04;;;;;;;;;;;6.00;99.90;;;;;;5012071;28;19912;-85
2023/12/23 00:43:30;;;;;;;;;;;6.00;99.90;;;;;;4995889;28;19976;-86
2023/12/23 00:45:55;;;;;;;;;;;6.00;99.90;;;;;;5044623;28;19917;-86
2023/12/23 00:48:21;;;;;;;;;;;6.00;99.90;;;;;;5028858;28;19956;-85
2023/12/23 00:50:46;;;;;;;;;;;6.00;99.90;;;;;;4996000;28;19936;-86
2023/12/23 00:53:12;;;;;;;;;;;5.90;99.90;;;;;;4995600;28;19909;-86
2023/12/23 00:55:38;;;;;;;;;;;5.90;99.90;;;;;;5028700;28;20402;-86
2023/12/23 00:58:04;;;;;;;;;;;6.00;99.90;;;;;;5028758;28;20349;-85
2023/12/23 01:00:30;;;;;;;;;;;6.20;99.90;;;;;;4995482;28;19920;-86
2023/12/23 01:02:57;;;;;;;;;;;6.00;99.90;;;;;;5012454;28;20403;-86
2023/12/23 01:05:22;;;;;;;;;;;6.00;99.90;;;;;;4995856;28;19917;-85
2023/12/23 01:07:48;;;;;;;;;;;6.10;99.90;;;;;;4994130;28;19913;-85
2023/12/23 01:10:13;;;;;;;;;;;6.00;99.90;;;;;;4995664;28;20000;-86
2023/12/23 01:12:39;;;;;;;;;;;6.00;99.90;;;;;;5028334;28;20012;-86
2023/12/23 01:15:05;;;;;;;;;;;6.00;99.90;;;;;;5044691;28;20347;-86
2023/12/23 01:17:32;;;;;;;;;;;6.00;99.90;;;;;;5011901;28;19910;-86
2023/12/23 01:19:57;;;;;;;;;;;6.10;99.90;;;;;;5044608;28;20261;-85
2023/12/23 01:22:23;;;;;;;;;;;6.10;99.90;;;;;;5012504;28;19917;-86
2023/12/23 01:24:48;;;;;;;;;;;6.00;99.90;;;;;;4995976;28;19959;-85
2023/12/23 01:27:14;;;;;;;;;;;5.90;99.90;;;;;;5012251;28;19913;-87
2023/12/23 01:29:39;;;;;;;;;;;5.90;99.90;;;;;;4995887;28;19935;-86
2023/12/23 01:32:05;;;;;;;;;;;5.70;99.90;;;;;;5029800;28;19909;-86
2023/12/23 01:34:31;;;;;;;;;;;5.50;99.90;;;;;;4999298;28;19924;-86
2023/12/23 01:36:57;;;;;;;;;;;5.40;99.90;;;;;;4999235;28;19909;-86
2023/12/23 01:39:23;;;;;;;;;;;5.40;99.90;;;;;;5016492;28;20377;-86
2023/12/23 01:41:50;;;;;;;;;;;5.40;99.90;;;;;;5015037;28;19956;-85
2023/12/23 01:44:16;;;;;;;;;;;5.40;99.90;;;;;;4999044;28;20415;-86
2023/12/23 01:46:41;;;;;;;;;;;5.40;99.90;;;;;;5016770;28;19909;-86
2023/12/23 01:49:07;;;;;;;;;;;5.40;99.90;;;;;;4998161;28;19967;-86
2023/12/23 01:51:33;;;;;;;;;;;5.50;99.90;;;;;;5014255;28;19909;-86
2023/12/23 01:54:02;;;;;;;;;;;5.40;99.90;;;;;;5014609;28;20277;-85
2023/12/23 01:56:29;;;;;;;;;;;5.50;99.90;;;;;;5014610;28;19980;-86
2023/12/23 01:58:55;;;;;;;;;;;5.40;99.90;;;;;;4998335;28;19909;-86
2023/12/23 02:01:21;;;;;;;;;;;5.30;99.90;;;;;;4998070;28;19920;-86
2023/12/23 02:07:15;;;;;;;;;;;5.10;99.90;;;;;;5013997;28;19960;-86
2023/12/23 02:09:43;;;;;;;;;;;5.10;99.90;;;;;;5015415;28;19956;-86
2023/12/23 02:12:20;;;;;;;;;;;5.20;99.90;;;;;;4998497;28;19964;-85
2023/12/23 02:14:50;;;;;;;;;;;5.20;99.90;;;;;;5013932;28;20316;-86
2023/12/23 02:17:15;;;;;;;;;;;5.30;99.90;;;;;;4997756;28;19916;-84
2023/12/23 02:19:41;;;;;;;;;;;5.20;99.90;;;;;;5031041;28;19909;-85
2023/12/23 02:22:06;;;;;;;;;;;5.00;99.90;;;;;;5040834;28;19913;-86
2023/12/23 02:24:33;;;;;;;;;;;5.00;99.90;;;;;;5000213;28;19909;-85
2023/12/23 02:27:01;;;;;;;;;;;5.10;99.90;;;;;;5016610;28;19917;-86
2023/12/23 02:29:27;;;;;;;;;;;5.20;99.90;;;;;;5016693;28;20380;-87
2023/12/23 02:31:53;;;;;;;;;;;5.30;99.90;;;;;;4998786;28;19948;-85
2023/12/23 02:34:19;;;;;;;;;;;5.40;99.90;;;;;;4998502;28;19972;-86
2023/12/23 02:36:45;;;;;;;;;;;5.40;99.90;;;;;;4998122;28;19913;-85
2023/12/23 02:39:11;;;;;;;;;;;5.40;99.90;;;;;;4997861;28;20020;-86
2023/12/23 02:41:37;;;;;;;;;;;5.40;99.90;;;;;;5030046;28;19924;-86
2023/12/23 02:44:03;;;;;;;;;;;5.40;99.90;;;;;;4997174;28;19913;-86
2023/12/23 02:46:28;;;;;;;;;;;5.40;99.90;;;;;;4998104;28;19909;-86
2023/12/23 02:48:54;;;;;;;;;;;5.40;99.90;;;;;;5030296;28;19918;-86
2023/12/23 02:51:19;;;;;;;;;;;5.40;99.90;;;;;;4997890;28;19909;-86
2023/12/23 02:53:45;;;;;;;;;;;5.40;99.90;;;;;;4997229;28;20423;-86
2023/12/23 02:56:10;;;;;;;;;;;5.30;99.90;;;;;;4997529;28;19920;-86
2023/12/23 02:58:36;;;;;;;;;;;5.30;99.90;;;;;;4997261;28;19909;-86
2023/12/23 03:01:06;;;;;;;;;;;5.30;99.90;;;;;;4996794;28;20556;-85
2023/12/23 03:03:32;;;;;;;;;;;5.30;99.90;;;;;;4997157;28;20004;-86
2023/12/23 03:05:58;;;;;;;;;;;5.30;99.90;;;;;;4997317;28;19955;-86
2023/12/23 03:08:23;;;;;;;;;;;5.40;99.90;;;;;;5010133;28;20030;-86
2023/12/23 03:10:49;;;;;;;;;;;5.40;99.90;;;;;;4996729;28;20264;-86
2023/12/23 03:13:15;;;;;;;;;;;5.30;99.90;;;;;;4996437;28;20007;-86
2023/12/23 03:15:40;;;;;;;;;;;5.30;99.90;;;;;;4996834;28;19995;-86
2023/12/23 03:18:06;;;;;;;;;;;5.30;99.90;;;;;;4996715;28;19997;-86
2023/12/23 03:20:32;;;;;;;;;;;5.30;99.90;;;;;;4997467;28;19909;-86
2023/12/23 03:22:58;;;;;;;;;;;5.30;99.90;;;;;;4996659;28;19913;-86
2023/12/23 03:25:24;;;;;;;;;;;5.30;99.90;;;;;;4996883;28;19913;-86
2023/12/23 03:27:49;;;;;;;;;;;5.30;99.90;;;;;;5013296;28;19914;-86
2023/12/23 03:30:15;;;;;;;;;;;5.30;99.90;;;;;;5045906;28;19906;-87
2023/12/23 03:32:41;;;;;;;;;;;5.40;99.90;;;;;;4996582;28;19909;-85
2023/12/23 03:35:07;;;;;;;;;;;5.30;99.90;;;;;;5029741;28;20012;-86
2023/12/23 03:37:33;;;;;;;;;;;5.40;99.90;;;;;;4997647;28;19932;-86
2023/12/23 03:40:00;;;;;;;;;;;5.30;99.90;;;;;;4997897;28;19917;-86
2023/12/23 03:42:27;;;;;;;;;;;5.30;99.90;;;;;;4997169;28;19939;-86
2023/12/23 03:44:53;;;;;;;;;;;5.30;99.90;;;;;;4997439;28;19913;-86
2023/12/23 03:47:18;;;;;;;;;;;5.30;99.90;;;;;;4997594;28;19914;-86
2023/12/23 03:49:44;;;;;;;;;;;5.30;99.90;;;;;;4997220;28;20631;-86
2023/12/23 03:52:10;;;;;;;;;;;5.30;99.90;;;;;;5012540;28;19943;-86
2023/12/23 03:54:35;;;;;;;;;;;5.30;99.90;;;;;;5012543;28;19939;-86
2023/12/23 03:57:01;;;;;;;;;;;5.30;99.90;;;;;;5012496;28;19917;-86
2023/12/23 03:59:26;;;;;;;;;;;5.30;99.90;;;;;;5028556;28;19918;-86
2023/12/23 04:01:53;;;;;;;;;;;5.30;99.90;;;;;;4996348;28;19965;-86
2023/12/23 04:04:20;;;;;;;;;;;5.30;99.90;;;;;;5011860;28;20006;-86
2023/12/23 04:06:46;;;;;;;;;;;5.30;99.90;;;;;;5028445;28;19916;-86
2023/12/23 04:09:11;;;;;;;;;;;5.30;99.90;;;;;;4995367;28;20227;-86
2023/12/23 04:11:37;;;;;;;;;;;5.30;99.90;;;;;;4996517;28;19909;-86
2023/12/23 04:14:03;;;;;;;;;;;5.30;99.90;;;;;;4995711;28;19919;-85
2023/12/23 04:16:28;;;;;;;;;;;5.30;99.90;;;;;;4995887;28;20276;-86
2023/12/23 04:18:54;;;;;;;;;;;5.30;99.90;;;;;;5012509;28;19916;-85
2023/12/23 04:21:20;;;;;;;;;;;5.30;99.90;;;;;;5012551;28;19909;-86
2023/12/23 04:23:45;;;;;;;;;;;5.30;99.90;;;;;;4996181;28;19956;-86
2023/12/23 04:26:13;;;;;;;;;;;5.40;99.90;;;;;;4995920;28;19920;-85
2023/12/23 04:28:39;;;;;;;;;;;5.30;99.90;;;;;;4995630;28;19914;-86
2023/12/23 04:31:04;;;;;;;;;;;5.30;99.90;;;;;;4995740;28;19914;-86
2023/12/23 04:33:30;;;;;;;;;;;5.30;99.90;;;;;;4995414;28;20335;-86
2023/12/23 04:35:56;;;;;;;;;;;5.30;99.90;;;;;;5028057;28;19920;-86
2023/12/23 04:38:22;;;;;;;;;;;5.30;99.90;;;;;;4995510;28;20669;-85
2023/12/23 04:40:47;;;;;;;;;;;5.30;99.90;;;;;;5028240;28;19948;-85
2023/12/23 04:43:13;;;;;;;;;;;5.40;99.90;;;;;;4995579;28;20376;-85
2023/12/23 04:45:39;;;;;;;;;;;5.30;99.90;;;;;;4995474;28;20415;-86
2023/12/23 04:48:06;;;;;;;;;;;5.40;99.90;;;;;;4996498;28;19909;-85
2023/12/23 04:50:31;;;;;;;;;;;5.40;99.90;;;;;;4996183;28;19960;-86
2023/12/23 04:52:58;;;;;;;;;;;5.40;99.90;;;;;;5012658;28;19909;-86
2023/12/23 04:55:26;;;;;;;;;;;5.40;99.90;;;;;;4995764;28;19906;-85
2023/12/23 04:57:52;;;;;;;;;;;5.40;99.90;;;;;;4995303;28;19916;-86
2023/12/23 05:00:18;;;;;;;;;;;5.40;99.90;;;;;;4996265;28;20345;-86
2023/12/23 05:02:44;;;;;;;;;;;5.40;99.90;;;;;;5012807;28;19928;-86
2023/12/23 05:05:10;;;;;;;;;;;5.40;99.90;;;;;;4996023;28;19909;-86
2023/12/23 05:07:35;;;;;;;;;;;5.30;99.90;;;;;;4997354;28;19958;-85
2023/12/23 05:10:01;;;;;;;;;;;5.40;99.90;;;;;;4996180;28;19909;-86
2023/12/23 05:12:27;;;;;;;;;;;5.30;99.90;;;;;;4999235;28;19996;-87
2023/12/23 05:14:52;;;;;;;;;;;5.30;99.90;;;;;;4998724;28;19913;-85
2023/12/23 05:17:18;;;;;;;;;;;5.30;99.90;;;;;;4998932;28;19913;-86
2023/12/23 05:19:47;;;;;;;;;;;5.30;99.90;;;;;;4998726;28;19920;-86
2023/12/23 05:22:13;;;;;;;;;;;5.30;99.90;;;;;;4999227;28;19917;-86
2023/12/23 05:24:38;;;;;;;;;;;5.30;99.90;;;;;;5014957;28;19913;-85
2023/12/23 05:27:05;;;;;;;;;;;5.30;99.90;;;;;;5014996;28;19921;-85
2023/12/23 05:29:30;;;;;;;;;;;5.30;99.90;;;;;;4999128;28;20521;-86
2023/12/23 05:31:56;;;;;;;;;;;5.20;99.90;;;;;;4999083;28;19916;-86
2023/12/23 05:34:22;;;;;;;;;;;5.20;99.90;;;;;;4998692;28;19916;-86
2023/12/23 05:36:47;;;;;;;;;;;5.20;99.90;;;;;;5015531;28;19910;-85
2023/12/23 05:39:13;;;;;;;;;;;5.20;99.90;;;;;;4999472;28;19917;-86
2023/12/23 05:41:39;;;;;;;;;;;5.20;99.90;;;;;;4998997;28;20392;-86
2023/12/23 05:44:04;;;;;;;;;;;5.20;99.90;;;;;;5015508;28;20051;-85
2023/12/23 05:46:30;;;;;;;;;;;5.20;99.90;;;;;;4999169;28;20331;-86
2023/12/23 05:48:55;;;;;;;;;;;5.20;99.90;;;;;;5015375;28;19910;-85
2023/12/23 05:51:21;;;;;;;;;;;5.20;99.90;;;;;;4998868;28;19952;-86
2023/12/23 05:53:46;;;;;;;;;;;5.20;99.90;;;;;;4998440;28;20468;-86
2023/12/23 05:56:12;;;;;;;;;;;5.30;99.90;;;;;;5014797;28;19921;-85
2023/12/23 05:58:37;;;;;;;;;;;5.20;99.90;;;;;;5059962;28;19945;-86
2023/12/23 06:01:05;;;;;;;;;;;5.30;99.90;;;;;;5014226;28;20377;-87
2023/12/23 06:03:30;;;;;;;;;;;5.20;99.90;;;;;;4997487;28;19913;-86
2023/12/23 06:05:56;;;;;;;;;;;5.30;99.90;;;;;;5031190;28;20144;-86
2023/12/23 06:08:21;;;;;;;;;;;5.20;99.90;;;;;;4997998;28;20012;-86
2023/12/23 06:10:47;;;;;;;;;;;5.30;99.90;;;;;;4995416;28;19913;-86
2023/12/23 06:13:13;;;;;;;;;;;5.30;99.90;;;;;;4996900;28;19909;-86
2023/12/23 06:15:38;;;;;;;;;;;5.20;99.90;;;;;;5030383;28;19986;-86
2023/12/23 06:18:04;;;;;;;;;;;5.30;99.90;;;;;;4997653;28;19914;-86
2023/12/23 06:20:30;;;;;;;;;;;5.20;99.90;;;;;;4997582;28;19909;-86
2023/12/23 06:22:56;;;;;;;;;;;5.20;99.90;;;;;;4997886;28;19955;-86
2023/12/23 06:25:21;;;;;;;;;;;5.20;99.90;;;;;;5014178;28;19952;-85
2023/12/23 06:27:47;;;;;;;;;;;5.20;99.90;;;;;;4998146;28;19916;-86
2023/12/23 06:30:13;;;;;;;;;;;5.30;99.90;;;;;;4998002;28;19920;-85
2023/12/23 06:32:38;;;;;;;;;;;5.30;99.90;;;;;;4997678;28;19920;-86
2023/12/23 06:35:04;;;;;;;;;;;5.30;99.90;;;;;;5013886;28;19913;-86
2023/12/23 06:37:29;;;;;;;;;;;5.20;99.90;;;;;;4997376;28;20339;-86
2023/12/23 06:39:55;;;;;;;;;;;5.30;99.90;;;;;;4997767;28;19916;-86
2023/12/23 06:42:21;;;;;;;;;;;5.30;99.90;;;;;;4997909;28;20293;-86
2023/12/23 06:44:46;;;;;;;;;;;5.20;99.90;;;;;;4997727;28;19916;-86
2023/12/23 06:47:12;;;;;;;;;;;5.30;99.90;;;;;;4997765;28;19909;-86
2023/12/23 06:49:37;;;;;;;;;;;5.30;99.90;;;;;;5013735;28;19914;-86
2023/12/23 06:52:03;;;;;;;;;;;5.40;99.90;;;;;;4997134;28;19916;-86
2023/12/23 06:54:29;;;;;;;;;;;5.30;99.90;;;;;;4997201;28;20365;-86
2023/12/23 06:56:54;;;;;;;;;;;5.30;99.90;;;;;;4997484;28;19940;-85
2023/12/23 06:59:20;;;;;;;;;;;5.30;99.90;;;;;;4998369;28;19956;-85
2023/12/23 07:01:46;;;;;;;;;;;5.20;99.90;;;;;;4997392;28;19952;-84
2023/12/23 07:04:11;;;;;;;;;;;5.30;99.90;;;;;;5013734;28;19916;-85
2023/12/23 07:06:37;;;;;;;;;;;5.30;99.90;;;;;;5013314;28;19968;-86
2023/12/23 07:09:03;;;;;;;;;;;5.30;99.90;;;;;;4996759;28;19906;-85
2023/12/23 07:11:28;;;;;;;;;;;5.30;99.90;;;;;;4996721;28;20414;-86
2023/12/23 07:13:54;;;;;;;;;;;5.30;99.90;;;;;;4997142;28;19925;-86
2023/12/23 07:16:20;;;;;;;;;;;5.30;99.90;;;;;;5029637;28;19917;-86
2023/12/23 07:18:45;;;;;;;;;;;5.30;99.90;;;;;;5029455;28;19963;-87
2023/12/23 07:21:11;;;;;;;;;;;5.30;99.90;;;;;;5013299;28;19916;-85
2023/12/23 07:23:37;;;;;;;;;;;5.30;99.90;;;;;;5046032;28;19916;-85
2023/12/23 07:26:03;;;;;;;;;;;5.30;99.90;;;;;;4996915;28;19909;-84
2023/12/23 07:28:29;;;;;;;;;;;5.30;99.90;;;;;;4996310;28;20360;-86
2023/12/23 07:30:55;;;;;;;17.25;6.38;;;5.30;99.90;;;;;;5028475;28;19913;-85
2023/12/23 07:33:21;;;;;;;15.98;6.70;;;5.30;99.90;;;;;;5011648;28;20544;-85
2023/12/23 07:35:46;;;;;;;15.80;7.05;;;5.30;99.90;;;;;;4995566;28;20084;-85
2023/12/23 07:38:12;;;;;;;25.23;7.87;;;5.30;99.90;;;;;;5013504;28;20026;-85
2023/12/23 07:40:39;;;;;;;16.73;6.88;;;5.30;99.90;;;;;;4995841;28;20036;-85
2023/12/23 07:43:04;;;;;;;28.02;8.45;;;5.30;99.90;;;;;;5011993;28;20508;-85
2023/12/23 07:45:31;;;;;;;18.77;7.53;;;5.30;99.90;;;;;;5011891;28;20026;-84
2023/12/23 07:47:56;;;;;;;;;;;5.30;99.90;;;;;;4995493;28;20036;-85
2023/12/23 07:50:22;;;;;;;;;;;5.30;99.90;;;;;;5012336;28;19916;-85
2023/12/23 07:52:49;;;;;;;;;;;5.30;99.90;;;;;;4995813;28;19910;-85
2023/12/23 07:55:15;;;;;;;;;;;5.30;99.90;;;;;;4996277;28;19996;-85
2023/12/23 07:57:42;;;;;;;;;;;5.30;99.90;;;;;;4996765;28;19909;-85
2023/12/23 08:00:08;;;;;;;;;;;5.30;99.90;;;;;;5028842;28;19968;-85
2023/12/23 08:02:34;;;;;;;;;;;5.30;99.90;;;;;;4995539;28;19929;-85
2023/12/23 08:04:59;;;;;;;;;;;5.30;99.90;;;;;;5011730;28;19906;-85
2023/12/23 08:07:25;;;;;;;;;;;5.30;99.90;;;;;;4995677;28;20000;-85
2023/12/23 08:09:51;;;;;;;;;;;5.20;99.90;;;;;;4999884;28;19921;-85
2023/12/23 08:12:17;;;;;;;;;;;5.20;99.90;;;;;;4999299;28;19909;-84
2023/12/23 08:14:43;;;;;;;;;;;5.20;99.90;;;;;;4996144;28;20281;-85
2023/12/23 08:17:08;;;;;;;;;;;5.30;99.90;;;;;;4995569;28;20695;-85
2023/12/23 08:19:34;;;;;;;;;;;5.20;99.90;;;;;;4995501;28;19920;-85
2023/12/23 08:22:00;;;;;;;;;;;5.20;99.90;;;;;;5012199;28;19914;-85
2023/12/23 08:24:25;;;;;;;;;;;5.20;99.90;;;;;;5013338;28;19952;-85
2023/12/23 08:26:51;;;;;;;;;;;5.20;99.90;;;;;;5027669;28;20482;-86
2023/12/23 08:29:16;;;;;;;;;;;5.20;99.90;;;;;;4994499;28;20372;-85
2023/12/23 08:31:43;;;;;;;;;;;5.20;99.90;;;;;;4995084;28;20246;-85
2023/12/23 08:34:09;;;;;;;;;;;5.20;99.90;;;;;;5010763;28;19910;-85
2023/12/23 08:36:34;;;;;;;;;;;5.20;99.90;;;;;;4995179;28;19936;-85
2023/12/23 08:39:00;;;;;;;;;;;5.20;99.90;;;;;;4995532;28;19913;-84
2023/12/23 08:41:26;;;;;;;;;;;5.20;99.90;;;;;;4998648;28;20630;-86
2023/12/23 08:43:51;;;;;;;;;;;5.20;99.90;;;;;;4999041;28;19910;-85
2023/12/23 08:46:17;;;;;;;;;;;5.20;99.90;;;;;;4998980;28;19921;-85
2023/12/23 08:48:42;;;;;;;;;;;5.20;99.90;;;;;;5015483;28;20375;-85
2023/12/23 08:51:08;;;;;;;;;;;5.20;99.90;;;;;;5032231;28;19909;-85
2023/12/23 08:53:34;;;;;;;;;;;5.20;99.90;;;;;;4999319;28;19913;-85
2023/12/23 08:56:00;;;;;;;;;;;5.20;99.90;;;;;;4999133;28;19909;-85
2023/12/23 08:58:25;;;;;;;;;;;5.20;99.90;;;;;;5015703;28;20379;-85
2023/12/23 09:00:51;;;;;;;;;;;5.20;99.90;;;;;;4999540;28;19915;-85
2023/12/23 09:03:17;;;;;;;;;;;5.20;99.90;;;;;;5015729;28;19921;-85
2023/12/23 09:05:42;;;;;;;;;;;5.20;99.90;;;;;;5001736;28;19913;-85
2023/12/23 09:08:08;;;;;;;;;;;5.20;99.90;;;;;;5031610;28;19909;-85
2023/12/23 09:10:34;;;;;;;;;;;5.30;99.90;;;;;;5015444;28;19922;-85
2023/12/23 09:13:00;;;;;;;;;;;5.20;99.90;;;;;;4999089;28;20590;-85
2023/12/23 09:15:25;;;;;;;;;;;5.20;99.90;;;;;;5014692;28;19909;-85
2023/12/23 09:17:51;;;;;;;;;;;5.30;99.90;;;;;;4998474;28;20620;-85
2023/12/23 09:20:17;;;;;;;;;;;5.30;99.90;;;;;;4998487;28;20387;-86
2023/12/23 09:22:49;;;;;;;;;;;5.30;99.90;;;;;;4998630;28;20549;-85
2023/12/23 09:25:14;;;;;;;;;;;5.30;99.90;;;;;;4997457;28;20064;-86
2023/12/23 09:27:40;;;;;;;;;;;5.30;99.90;;;;;;5014508;28;19976;-84
2023/12/23 09:30:06;;;;;;;;;;;5.40;99.90;;;;;;4998027;28;19921;-85
2023/12/23 09:32:31;;;;;;;;;;;5.40;99.90;;;;;;4997806;28;19951;-85
2023/12/23 09:34:57;;;;;;;;;;;5.40;99.90;;;;;;5015698;28;19909;-85
2023/12/23 09:37:23;;;;;;;;;;;5.40;99.90;;;;;;4997792;28;19909;-85
2023/12/23 09:39:48;;;;;;;;;;;5.40;99.90;;;;;;5014328;28;19940;-85
2023/12/23 09:42:14;;;;;;;;;;;5.50;99.90;;;;;;5030938;28;19921;-85
2023/12/23 09:44:40;;;;;;;;;;;5.40;99.90;;;;;;4998471;28;20353;-85
2023/12/23 09:47:06;;;;;;;;;;;5.40;99.90;;;;;;4998778;28;19913;-85
2023/12/23 09:49:32;;;;;;;;;;;5.50;99.90;;;;;;4998472;28;19920;-86
2023/12/23 09:51:58;;;;;;;;;;;5.40;99.90;;;;;;4998119;28;19910;-85
2023/12/23 09:54:25;;;;;;;;;;;5.50;99.90;;;;;;5013913;28;20083;-86
2023/12/23 09:56:51;;;;;;;;;;;5.50;99.90;;;;;;4998199;28;19963;-85
2023/12/23 09:59:23;;;;;;;;;;;5.50;99.90;;;;;;4998389;28;19909;-84
2023/12/23 10:01:48;;;;;;;;;;;5.50;99.90;;;;;;4998094;28;19917;-85
2023/12/23 10:04:14;;;;;;;;;;;5.50;99.90;;;;;;4998340;28;19936;-85
2023/12/23 10:06:40;;;;;;;;;;;5.50;99.90;;;;;;4997648;28;20281;-85
2023/12/23 10:09:05;;;;;;;;;;;5.50;99.90;;;;;;4998063;28;20428;-86
2023/12/23 10:11:31;;;;;;;;;;;5.50;99.90;;;;;;5047095;28;19917;-86
2023/12/23 10:13:56;;;;;;;;;;;5.50;99.90;;;;;;5030860;28;20016;-85
2023/12/23 10:16:29;;;;;;;;;;;5.50;99.90;;;;;;4997486;28;20007;-85
2023/12/23 10:18:55;;;;;;;;;;;5.50;99.90;;;;;;4999441;28;19959;-86
2023/12/23 10:21:21;;;;;;;;;;;5.50;99.90;;;;;;5030093;28;19913;-85
2023/12/23 10:23:46;;;;;;;;;;;5.50;99.90;;;;;;5030163;28;19920;-85
2023/12/23 10:26:12;;;;;;;;;;;5.50;99.90;;;;;;4997653;28;19909;-85
2023/12/23 10:28:39;;;;;;;;;;;5.60;99.90;;;;;;5030546;28;19909;-85
2023/12/23 10:31:10;;;;;;;;;;;5.60;99.90;;;;;;4997584;28;20376;-86
2023/12/23 10:33:37;;;;;;;;;;;5.60;99.90;;;;;;4997579;28;19909;-86
2023/12/23 10:36:04;;;;;;;;;;;5.60;99.90;;;;;;4997884;28;19913;-86
2023/12/23 10:38:52;;;;;;;;;;;5.60;99.90;;;;;;4998542;28;20632;-87
2023/12/23 10:41:23;;;;;;;;;;;5.60;99.90;;;;;;5030987;28;19916;-85
2023/12/23 10:43:49;;;;;;;;;;;5.60;99.90;;;;;;4997919;28;19910;-86
2023/12/23 10:46:15;;;;;;;;;;;5.80;99.90;;;;;;4998206;28;20548;-86
2023/12/23 10:48:41;;;;;;;;;;;5.70;99.90;;;;;;4997249;28;20019;-86
2023/12/23 10:51:07;;;;;;;;;;;5.80;99.90;;;;;;5031442;28;19920;-86
2023/12/23 10:53:34;;;;;;;;;;;5.80;99.90;;;;;;5016519;28;19963;-86
2023/12/23 10:55:59;;;;;;;;;;;5.90;99.90;;;;;;4998314;28;20048;-85
2023/12/23 10:58:26;;;;;;;;;;;5.80;99.90;;;;;;5005922;28;19940;-86
2023/12/23 11:00:53;;;;;;;;;;;5.80;99.90;;;;;;5000728;28;20052;-86
2023/12/23 11:03:19;;;;;;;;;;;5.80;99.90;;;;;;4997197;28;19970;-86
2023/12/23 11:05:45;;;;;;;;;;;5.80;99.90;;;;;;5029231;28;20365;-86
2023/12/23 11:08:14;;;;;;;;;;;5.80;99.90;;;;;;4997683;28;20284;-86
2023/12/23 11:10:41;;;;;;;;;;;5.80;99.90;;;;;;5013430;28;19913;-85
2023/12/23 11:13:07;;;;;;;;;;;5.80;99.90;;;;;;4996981;28;19913;-86
2023/12/23 11:15:36;;;;;;;;;;;5.70;99.90;;;;;;4996724;28;20269;-86
2023/12/23 11:18:02;;;;;;;;;;;5.70;99.90;;;;;;4997162;28;19909;-86
2023/12/23 11:20:35;;;;;;;;;;;5.70;99.90;;;;;;4996276;28;19909;-86
2023/12/23 11:23:21;;;;;;;;;;;5.70;99.90;;;;;;5029116;28;20015;-86
2023/12/23 11:25:46;;;;;;;;;;;5.70;99.90;;;;;;4998706;28;19924;-86
2023/12/23 11:28:12;;;;;;;;;;;5.70;99.90;;;;;;5013920;28;19909;-85
2023/12/23 11:30:53;;;;;;;;;;;5.70;99.90;;;;;;5012681;28;19913;-86
2023/12/23 11:33:24;;;;;;;;;;;5.80;99.90;;;;;;4996088;28;19933;-85
2023/12/23 11:35:51;;;;;;;;;;;5.70;99.90;;;;;;4996615;28;19935;-86
2023/12/23 11:38:16;;;;;;;;;;;5.70;99.90;;;;;;4996148;28;20391;-85
2023/12/23 11:40:42;;;;;;;;;;;5.70;99.90;;;;;;4997622;28;19920;-85
2023/12/23 11:43:08;;;;;;;;;;;5.80;99.90;;;;;;4995801;28;19917;-85
2023/12/23 11:45:34;;;;;;;;;;;5.70;99.90;;;;;;5045777;28;20002;-85
2023/12/23 11:48:03;;;;;;;;;;;5.70;99.90;;;;;;4996715;28;19909;-84
2023/12/23 11:50:29;;;;;;;;;;;5.70;99.90;;;;;;4996442;28;19910;-86
2023/12/23 11:52:55;;;;;;;;;;;5.70;99.90;;;;;;4995836;28;19920;-85
2023/12/23 11:55:21;;;;;;;;;;;5.70;99.90;;;;;;4996255;28;19909;-85
2023/12/23 11:57:46;;;;;;;;;;;5.70;99.90;;;;;;5028191;28;19931;-86
2023/12/23 12:00:12;;;;;;;;;;;5.70;99.90;;;;;;5011175;28;19917;-86
2023/12/23 12:02:37;;;;;;;;;;;5.70;99.90;;;;;;4994948;28;20361;-86
2023/12/23 12:05:04;;;;;;;;;;;5.70;99.90;;;;;;4995025;28;20012;-85
2023/12/23 12:07:30;;;;;;;;;;;5.80;99.90;;;;;;4995443;28;19913;-85
2023/12/23 12:09:56;;;;;;;;;;;5.80;99.90;;;;;;5011050;28;20413;-86
2023/12/23 12:12:21;;;;;;;;;;;5.80;99.90;;;;;;5011459;28;19910;-86
2023/12/23 12:14:47;;;;;;;;;;;5.70;99.90;;;;;;4995440;28;20539;-85
2023/12/23 12:17:13;;;;;;;;;;;5.70;99.90;;;;;;5012356;28;19936;-85
2023/12/23 12:19:39;;;;;;;;;;;5.70;99.90;;;;;;5027992;28;20408;-86
2023/12/23 12:22:04;;;;;;;;;;;5.70;99.90;;;;;;4995300;28;19917;-85
2023/12/23 12:24:53;;;;;;;;;;;5.80;99.90;;;;;;5011052;28;20372;-85
2023/12/23 12:27:18;;;;;;;;;;;5.80;99.90;;;;;;5011530;28;19909;-85
2023/12/23 12:29:45;;;;;;;;;;;5.80;99.90;;;;;;4995080;28;19917;-85
2023/12/23 12:32:12;;;;;;;;;;;5.90;99.90;;;;;;4995474;28;19916;-86
2023/12/23 12:34:37;;;;;;;;;;;5.80;99.90;;;;;;4995398;28;19913;-86
2023/12/23 12:37:03;;;;;;;;;;;5.80;99.90;;;;;;4995430;28;20640;-84
2023/12/23 12:39:28;;;;;;;;;;;5.80;99.90;;;;;;5012053;28;19913;-86
2023/12/23 12:41:54;;;;;;;;;;;5.80;99.90;;;;;;5010955;28;19960;-85
2023/12/23 12:44:20;;;;;;;;;;;5.80;99.90;;;;;;5011546;28;19910;-85
2023/12/23 12:46:55;;;;;;;;;;;5.80;99.90;;;;;;4995168;28;19913;-85
2023/12/23 12:49:23;;;;;;;;;;;5.70;99.90;;;;;;5044294;28;20264;-85
2023/12/23 12:51:59;;;;;;;;;;;5.70;99.90;;;;;;5010874;28;19910;-85
2023/12/23 12:54:25;;;;;;;;;;;5.70;99.90;;;;;;4994858;28;19940;-85
2023/12/23 12:56:51;;;;;;;;;;;5.80;99.90;;;;;;5011651;28;19917;-84
2023/12/23 12:59:17;;;;;;;;;;;5.80;99.90;;;;;;5012934;28;19914;-84
2023/12/23 13:01:44;;;;;;;;;;;5.80;99.90;;;;;;4993726;28;19921;-84
2023/12/23 13:04:09;;;;;;;;;;;5.70;99.90;;;;;;5011358;28;20592;-85
2023/12/23 13:06:35;;;;;;;;;;;5.80;99.90;;;;;;5027040;28;19909;-85
2023/12/23 13:09:00;;;;;;;;;;;5.70;99.90;;;;;;4994567;28;19916;-85
2023/12/23 13:11:26;;;;;;;;;;;5.70;99.90;;;;;;4994551;28;19909;-85
2023/12/23 13:13:51;;;;;;;;;;;5.80;99.90;;;;;;4995375;28;19913;-85
2023/12/23 13:16:17;;;;;;;;;;;5.80;99.90;;;;;;5027024;28;19921;-85
2023/12/23 13:18:43;;;;;;;;;;;5.80;99.90;;;;;;4994174;28;19932;-86
2023/12/23 13:21:09;;;;;;;;;;;5.80;99.90;;;;;;5010971;28;20400;-85
2023/12/23 13:23:34;;;;;;;;;;;5.80;99.90;;;;;;4994844;28;19956;-85
2023/12/23 13:26:00;;;;;;;;;;;5.80;99.90;;;;;;5011387;28;20380;-85
2023/12/23 13:28:25;;;;;;;;;;;5.80;99.90;;;;;;5012142;28;19909;-85
2023/12/23 13:30:51;;;;;;;;;;;5.70;99.90;;;;;;4997756;28;19959;-85
2023/12/23 13:33:17;;;;;;;;;;;5.70;99.90;;;;;;5013533;28;19920;-85
2023/12/23 13:35:42;;;;;;;;;;;5.70;99.90;;;;;;4997749;28;20265;-85
2023/12/23 13:38:08;;;;;;;;;;;5.70;99.90;;;;;;5046616;28;19913;-84
2023/12/23 13:40:34;;;;;;;;;;;5.80;99.90;;;;;;4997442;28;19910;-86
2023/12/23 13:42:59;;;;;;;;;;;5.70;99.90;;;;;;4997588;28;19924;-84
2023/12/23 13:45:50;;;;;;;;;;;5.70;99.90;;;;;;5014206;28;19910;-86
2023/12/23 13:48:16;;;;;;;;;;;5.70;99.90;;;;;;5031439;28;20419;-86
2023/12/23 13:50:41;;;;;;;;;;;5.70;99.90;;;;;;5014223;28;20027;-84
2023/12/23 13:53:07;;;;;;;;;;;5.70;99.90;;;;;;5047017;28;19949;-85
2023/12/23 13:55:32;;;;;;;;;;;5.70;99.90;;;;;;4997878;28;19910;-84
2023/12/23 13:57:58;;;;;;;;;;;5.70;99.90;;;;;;4996948;28;20200;-85
2023/12/23 14:00:23;;;;;;;;;;;5.70;99.90;;;;;;4997402;28;20252;-84
2023/12/23 14:02:49;;;;;;;;;;;5.70;99.90;;;;;;5030954;28;19968;-84
2023/12/23 14:05:14;;;;;;;;;;;5.70;99.90;;;;;;5013919;28;20674;-84
2023/12/23 14:07:40;;;;;;;;;;;5.70;99.90;;;;;;5014482;28;20392;-84
2023/12/23 14:10:06;;;;;;;;;;;5.70;99.90;;;;;;4997267;28;19959;-84
2023/12/23 14:12:32;;;;;;;;;;;5.70;99.90;;;;;;4997277;28;19909;-85
2023/12/23 14:14:58;;;;;;;;;;;5.70;99.90;;;;;;4996808;28;19913;-85
2023/12/23 14:17:23;;;;;;;;;;;5.70;99.90;;;;;;4997088;28;20009;-84
2023/12/23 14:19:49;;;;;;;;;;;5.70;99.90;;;;;;5013825;28;19921;-84
2023/12/23 14:25:43;;;;;;;;;;;5.70;99.90;;;;;;5014963;28;19973;-84
2023/12/23 14:28:09;;;;;;;;;;;5.70;99.90;;;;;;5047152;28;19968;-84